sensor_id;sensor_type;location;lat;lon;timestamp;temperature;humidity
2605;DHT22;1312;50.298;8.520;2024-01-07T00:02:15;2.70;18.60
2605;DHT22;1312;50.298;8.520;2024-01-07T00:04:43;2.50;1.00
2605;DHT22;1312;50.298;8.520;2024-01-07T00:07:11;2.60;1.00
2605;DHT22;1312;50.298;8.520;2024-01-07T00:09:39;2.50;99.90
2605;DHT22;1312;50.298;8.520;2024-01-07T00:12:07;2.70;1.00
2605;DHT22;1312;50.298;8.520;2024-01-07T00:14:35;2.50;99.90
2605;DHT22;1312;50.298;8.520;2024-01-07T00:17:03;2.50;99.90
2605;DHT22;1312;50.298;8.520;2024-01-07T00:19:32;2.60;99.90
2605;DHT22;1312;50.298;8.520;2024-01-07T00:22:02;2.70;1.00
2605;DHT22;1312;50.298;8.520;2024-01-07T00:24:30;2.70;77.60
2605;DHT22;1312;50.298;8.520;2024-01-07T00:26:58;2.70;1.00
2605;DHT22;1312;50.298;8.520;2024-01-07T00:29:26;2.60;1.00
2605;DHT22;1312;50.298;8.520;2024-01-07T00:31:54;2.60;1.00
2605;DHT22;1312;50.298;8.520;2024-01-07T00:34:22;2.80;99.90
2605;DHT22;1312;50.298;8.520;2024-01-07T00:36:51;2.70;1.00
2605;DHT22;1312;50.298;8.520;2024-01-07T00:39:20;2.80;1.00
2605;DHT22;1312;50.298;8.520;2024-01-07T00:41:48;2.70;1.00
2605;DHT22;1312;50.298;8.520;2024-01-07T00:44:16;2.50;99.90
2605;DHT22;1312;50.298;8.520;2024-01-07T00:46:44;2.70;1.00
2605;DHT22;1312;50.298;8.520;2024-01-07T00:49:15;2.80;1.00
2605;DHT22;1312;50.298;8.520;2024-01-07T00:51:44;2.60;99.90
2605;DHT22;1312;50.298;8.520;2024-01-07T00:54:13;2.70;99.90
2605;DHT22;1312;50.298;8.520;2024-01-07T00:56:41;2.60;1.00
2605;DHT22;1312;50.298;8.520;2024-01-07T00:59:09;2.70;99.90
2605;DHT22;1312;50.298;8.520;2024-01-07T01:01:36;2.70;1.00
2605;DHT22;1312;50.298;8.520;2024-01-07T01:04:04;2.70;1.00
2605;DHT22;1312;50.298;8.520;2024-01-07T01:06:32;2.80;1.00
2605;DHT22;1312;50.298;8.520;2024-01-07T01:09:00;2.80;99.90
2605;DHT22;1312;50.298;8.520;2024-01-07T01:11:29;2.80;1.00
2605;DHT22;1312;50.298;8.520;2024-01-07T01:13:57;2.80;1.00
2605;DHT22;1312;50.298;8.520;2024-01-07T01:16:25;2.80;1.00
2605;DHT22;1312;50.298;8.520;2024-01-07T01:18:53;2.70;99.90
2605;DHT22;1312;50.298;8.520;2024-01-07T01:21:21;2.80;99.90
2605;DHT22;1312;50.298;8.520;2024-01-07T01:23:49;2.50;1.00
2605;DHT22;1312;50.298;8.520;2024-01-07T01:26:17;2.60;99.90
2605;DHT22;1312;50.298;8.520;2024-01-07T01:28:46;2.60;1.00
2605;DHT22;1312;50.298;8.520;2024-01-07T01:31:14;2.60;99.90
2605;DHT22;1312;50.298;8.520;2024-01-07T01:33:42;2.80;1.00
2605;DHT22;1312;50.298;8.520;2024-01-07T01:36:10;2.90;99.90
2605;DHT22;1312;50.298;8.520;2024-01-07T01:38:38;2.80;1.00
2605;DHT22;1312;50.298;8.520;2024-01-07T01:41:06;2.70;99.90
2605;DHT22;1312;50.298;8.520;2024-01-07T01:43:34;2.80;99.90
2605;DHT22;1312;50.298;8.520;2024-01-07T01:46:04;2.70;99.90
2605;DHT22;1312;50.298;8.520;2024-01-07T01:48:32;2.80;1.00
2605;DHT22;1312;50.298;8.520;2024-01-07T01:51:01;2.60;99.90
2605;DHT22;1312;50.298;8.520;2024-01-07T01:53:29;2.70;1.00
2605;DHT22;1312;50.298;8.520;2024-01-07T01:56:00;2.80;1.00
2605;DHT22;1312;50.298;8.520;2024-01-07T01:58:29;2.70;99.90
2605;DHT22;1312;50.298;8.520;2024-01-07T02:00:57;2.70;1.00
2605;DHT22;1312;50.298;8.520;2024-01-07T02:03:26;2.90;1.00
2605;DHT22;1312;50.298;8.520;2024-01-07T02:05:55;2.80;99.90
2605;DHT22;1312;50.298;8.520;2024-01-07T02:08:25;2.80;99.90
2605;DHT22;1312;50.298;8.520;2024-01-07T02:10:53;2.80;16.20
2605;DHT22;1312;50.298;8.520;2024-01-07T02:13:21;2.70;1.00
2605;DHT22;1312;50.298;8.520;2024-01-07T02:15:49;2.70;1.00
2605;DHT22;1312;50.298;8.520;2024-01-07T02:18:16;2.80;1.00
2605;DHT22;1312;50.298;8.520;2024-01-07T02:20:46;2.50;99.90
2605;DHT22;1312;50.298;8.520;2024-01-07T02:23:14;2.70;1.00
2605;DHT22;1312;50.298;8.520;2024-01-07T02:25:43;2.60;81.50
2605;DHT22;1312;50.298;8.520;2024-01-07T02:28:11;2.50;99.90
2605;DHT22;1312;50.298;8.520;2024-01-07T02:30:39;2.30;1.00
2605;DHT22;1312;50.298;8.520;2024-01-07T02:33:07;2.30;1.00
2605;DHT22;1312;50.298;8.520;2024-01-07T02:35:35;2.40;99.90
2605;DHT22;1312;50.298;8.520;2024-01-07T02:38:03;2.50;1.00
2605;DHT22;1312;50.298;8.520;2024-01-07T02:40:31;2.70;1.00
2605;DHT22;1312;50.298;8.520;2024-01-07T02:43:00;2.60;99.90
2605;DHT22;1312;50.298;8.520;2024-01-07T02:45:28;2.70;1.00
2605;DHT22;1312;50.298;8.520;2024-01-07T02:47:56;2.60;51.20
2605;DHT22;1312;50.298;8.520;2024-01-07T02:50:24;2.50;99.90
2605;DHT22;1312;50.298;8.520;2024-01-07T02:52:52;2.60;99.90
2605;DHT22;1312;50.298;8.520;2024-01-07T02:55:20;2.60;1.00
2605;DHT22;1312;50.298;8.520;2024-01-07T02:57:48;2.70;1.00
2605;DHT22;1312;50.298;8.520;2024-01-07T03:00:18;2.40;1.00
2605;DHT22;1312;50.298;8.520;2024-01-07T03:02:46;2.30;1.00
2605;DHT22;1312;50.298;8.520;2024-01-07T03:05:15;2.50;99.90
2605;DHT22;1312;50.298;8.520;2024-01-07T03:07:42;2.60;82.20
2605;DHT22;1312;50.298;8.520;2024-01-07T03:10:10;2.60;57.10
2605;DHT22;1312;50.298;8.520;2024-01-07T03:12:38;2.50;1.00
2605;DHT22;1312;50.298;8.520;2024-01-07T03:15:07;2.50;99.90
2605;DHT22;1312;50.298;8.520;2024-01-07T03:17:36;2.40;1.00
2605;DHT22;1312;50.298;8.520;2024-01-07T03:20:06;2.40;99.90
2605;DHT22;1312;50.298;8.520;2024-01-07T03:22:34;2.40;1.00
2605;DHT22;1312;50.298;8.520;2024-01-07T03:25:02;2.50;99.90
2605;DHT22;1312;50.298;8.520;2024-01-07T03:27:30;2.60;1.00
2605;DHT22;1312;50.298;8.520;2024-01-07T03:29:58;2.70;1.00
2605;DHT22;1312;50.298;8.520;2024-01-07T03:32:26;2.50;1.00
2605;DHT22;1312;50.298;8.520;2024-01-07T03:34:56;2.20;99.90
2605;DHT22;1312;50.298;8.520;2024-01-07T03:37:24;2.40;1.00
2605;DHT22;1312;50.298;8.520;2024-01-07T03:39:52;2.60;1.00
2605;DHT22;1312;50.298;8.520;2024-01-07T03:42:20;2.50;1.00
2605;DHT22;1312;50.298;8.520;2024-01-07T03:44:48;2.60;99.90
2605;DHT22;1312;50.298;8.520;2024-01-07T03:47:15;2.60;99.90
2605;DHT22;1312;50.298;8.520;2024-01-07T03:49:43;2.20;11.80
2605;DHT22;1312;50.298;8.520;2024-01-07T03:52:13;1.90;1.00
2605;DHT22;1312;50.298;8.520;2024-01-07T03:54:41;2.00;99.90
2605;DHT22;1312;50.298;8.520;2024-01-07T03:57:09;2.20;99.90
2605;DHT22;1312;50.298;8.520;2024-01-07T03:59:36;2.20;99.90
2605;DHT22;1312;50.298;8.520;2024-01-07T04:02:04;2.30;99.90
2605;DHT22;1312;50.298;8.520;2024-01-07T04:04:32;2.30;78.00
2605;DHT22;1312;50.298;8.520;2024-01-07T04:07:00;2.30;1.00
2605;DHT22;1312;50.298;8.520;2024-01-07T04:09:30;2.40;39.70
2605;DHT22;1312;50.298;8.520;2024-01-07T04:11:58;2.50;1.00
2605;DHT22;1312;50.298;8.520;2024-01-07T04:14:26;2.10;23.80
2605;DHT22;1312;50.298;8.520;2024-01-07T04:16:54;2.20;99.90
2605;DHT22;1312;50.298;8.520;2024-01-07T04:19:22;2.40;99.90
2605;DHT22;1312;50.298;8.520;2024-01-07T04:21:50;2.40;99.90
2605;DHT22;1312;50.298;8.520;2024-01-07T04:24:18;2.40;99.90
2605;DHT22;1312;50.298;8.520;2024-01-07T04:26:47;2.50;99.90
2605;DHT22;1312;50.298;8.520;2024-01-07T04:29:15;2.30;99.90
2605;DHT22;1312;50.298;8.520;2024-01-07T04:31:43;2.20;99.90
2605;DHT22;1312;50.298;8.520;2024-01-07T04:34:11;2.30;99.90
2605;DHT22;1312;50.298;8.520;2024-01-07T04:36:39;2.20;99.90
2605;DHT22;1312;50.298;8.520;2024-01-07T04:39:08;2.00;99.90
2605;DHT22;1312;50.298;8.520;2024-01-07T04:41:36;2.20;99.90
2605;DHT22;1312;50.298;8.520;2024-01-07T04:44:05;2.10;99.90
2605;DHT22;1312;50.298;8.520;2024-01-07T04:46:34;2.10;99.90
2605;DHT22;1312;50.298;8.520;2024-01-07T04:49:02;2.30;99.90
2605;DHT22;1312;50.298;8.520;2024-01-07T04:51:30;2.20;99.90
2605;DHT22;1312;50.298;8.520;2024-01-07T04:53:58;2.30;99.90
2605;DHT22;1312;50.298;8.520;2024-01-07T04:56:26;2.10;99.90
2605;DHT22;1312;50.298;8.520;2024-01-07T04:58:53;2.10;99.90
2605;DHT22;1312;50.298;8.520;2024-01-07T05:01:23;2.10;99.90
2605;DHT22;1312;50.298;8.520;2024-01-07T05:03:51;2.10;99.90
2605;DHT22;1312;50.298;8.520;2024-01-07T05:06:19;1.90;99.90
2605;DHT22;1312;50.298;8.520;2024-01-07T05:08:47;1.90;99.90
2605;DHT22;1312;50.298;8.520;2024-01-07T05:11:15;1.90;99.90
2605;DHT22;1312;50.298;8.520;2024-01-07T05:13:44;1.90;99.90
2605;DHT22;1312;50.298;8.520;2024-01-07T05:16:18;1.90;99.90
2605;DHT22;1312;50.298;8.520;2024-01-07T05:18:47;1.90;99.90
2605;DHT22;1312;50.298;8.520;2024-01-07T05:21:18;2.10;99.90
2605;DHT22;1312;50.298;8.520;2024-01-07T05:23:46;2.10;99.90
2605;DHT22;1312;50.298;8.520;2024-01-07T05:26:14;2.10;99.90
2605;DHT22;1312;50.298;8.520;2024-01-07T05:28:41;2.00;99.90
2605;DHT22;1312;50.298;8.520;2024-01-07T05:31:14;2.00;99.90
2605;DHT22;1312;50.298;8.520;2024-01-07T05:33:42;1.90;99.90
2605;DHT22;1312;50.298;8.520;2024-01-07T05:36:12;1.90;99.90
2605;DHT22;1312;50.298;8.520;2024-01-07T05:38:41;1.90;99.90
2605;DHT22;1312;50.298;8.520;2024-01-07T05:41:09;1.90;99.90
2605;DHT22;1312;50.298;8.520;2024-01-07T05:43:37;1.90;99.90
2605;DHT22;1312;50.298;8.520;2024-01-07T05:46:05;1.90;99.90
2605;DHT22;1312;50.298;8.520;2024-01-07T05:48:41;1.90;99.90
2605;DHT22;1312;50.298;8.520;2024-01-07T05:51:12;1.90;99.90
2605;DHT22;1312;50.298;8.520;2024-01-07T05:53:41;1.90;99.90
2605;DHT22;1312;50.298;8.520;2024-01-07T05:56:10;1.80;99.90
2605;DHT22;1312;50.298;8.520;2024-01-07T05:58:38;1.90;99.90
2605;DHT22;1312;50.298;8.520;2024-01-07T06:01:07;1.80;99.90
2605;DHT22;1312;50.298;8.520;2024-01-07T06:03:36;1.80;99.90
2605;DHT22;1312;50.298;8.520;2024-01-07T06:06:04;1.70;99.90
2605;DHT22;1312;50.298;8.520;2024-01-07T06:08:34;1.90;99.90
2605;DHT22;1312;50.298;8.520;2024-01-07T06:11:02;1.80;99.90
2605;DHT22;1312;50.298;8.520;2024-01-07T06:13:30;1.70;99.90
2605;DHT22;1312;50.298;8.520;2024-01-07T06:15:57;1.70;99.90
2605;DHT22;1312;50.298;8.520;2024-01-07T06:18:26;1.70;99.90
2605;DHT22;1312;50.298;8.520;2024-01-07T06:20:54;1.60;99.90
2605;DHT22;1312;50.298;8.520;2024-01-07T06:23:21;1.70;99.90
2605;DHT22;1312;50.298;8.520;2024-01-07T06:25:51;1.60;99.90
2605;DHT22;1312;50.298;8.520;2024-01-07T06:28:19;1.50;99.90
2605;DHT22;1312;50.298;8.520;2024-01-07T06:30:47;1.50;99.90
2605;DHT22;1312;50.298;8.520;2024-01-07T06:33:15;1.40;99.90
2605;DHT22;1312;50.298;8.520;2024-01-07T06:35:43;1.30;99.90
2605;DHT22;1312;50.298;8.520;2024-01-07T06:38:11;1.30;99.90
2605;DHT22;1312;50.298;8.520;2024-01-07T06:40:39;1.20;99.90
2605;DHT22;1312;50.298;8.520;2024-01-07T06:43:08;1.20;99.90
2605;DHT22;1312;50.298;8.520;2024-01-07T06:45:36;1.20;99.90
2605;DHT22;1312;50.298;8.520;2024-01-07T06:48:05;1.20;99.90
2605;DHT22;1312;50.298;8.520;2024-01-07T06:50:34;1.20;99.90
2605;DHT22;1312;50.298;8.520;2024-01-07T06:53:02;1.20;99.90
2605;DHT22;1312;50.298;8.520;2024-01-07T06:55:29;1.20;85.00
2605;DHT22;1312;50.298;8.520;2024-01-07T06:57:57;1.10;1.00
2605;DHT22;1312;50.298;8.520;2024-01-07T07:00:26;1.10;1.00
2605;DHT22;1312;50.298;8.520;2024-01-07T07:02:54;1.10;50.60
2605;DHT22;1312;50.298;8.520;2024-01-07T07:05:22;1.10;99.90
2605;DHT22;1312;50.298;8.520;2024-01-07T07:07:50;1.10;99.90
2605;DHT22;1312;50.298;8.520;2024-01-07T07:10:21;1.00;99.90
2605;DHT22;1312;50.298;8.520;2024-01-07T07:12:49;1.10;99.90
2605;DHT22;1312;50.298;8.520;2024-01-07T07:15:18;1.10;99.90
2605;DHT22;1312;50.298;8.520;2024-01-07T07:17:47;1.10;99.90
2605;DHT22;1312;50.298;8.520;2024-01-07T07:20:15;1.00;99.90
2605;DHT22;1312;50.298;8.520;2024-01-07T07:22:43;1.00;94.70
2605;DHT22;1312;50.298;8.520;2024-01-07T07:25:11;1.10;1.00
2605;DHT22;1312;50.298;8.520;2024-01-07T07:27:39;1.10;99.90
2605;DHT22;1312;50.298;8.520;2024-01-07T07:30:07;1.10;71.70
2605;DHT22;1312;50.298;8.520;2024-01-07T07:32:35;1.10;99.90
2605;DHT22;1312;50.298;8.520;2024-01-07T07:35:05;1.00;78.30
2605;DHT22;1312;50.298;8.520;2024-01-07T07:37:34;1.00;99.90
2605;DHT22;1312;50.298;8.520;2024-01-07T07:40:02;1.10;1.00
2605;DHT22;1312;50.298;8.520;2024-01-07T07:42:30;1.00;1.00
2605;DHT22;1312;50.298;8.520;2024-01-07T07:44:58;1.00;1.00
2605;DHT22;1312;50.298;8.520;2024-01-07T07:47:27;1.00;1.00
2605;DHT22;1312;50.298;8.520;2024-01-07T07:49:55;1.00;99.90
2605;DHT22;1312;50.298;8.520;2024-01-07T07:52:24;1.00;1.00
2605;DHT22;1312;50.298;8.520;2024-01-07T07:54:52;0.90;20.40
2605;DHT22;1312;50.298;8.520;2024-01-07T07:57:21;0.90;1.00
2605;DHT22;1312;50.298;8.520;2024-01-07T07:59:52;0.90;99.90
2605;DHT22;1312;50.298;8.520;2024-01-07T08:02:20;0.90;1.00
2605;DHT22;1312;50.298;8.520;2024-01-07T08:04:48;0.90;1.00
2605;DHT22;1312;50.298;8.520;2024-01-07T08:07:17;0.90;99.90
2605;DHT22;1312;50.298;8.520;2024-01-07T08:09:46;0.80;99.90
2605;DHT22;1312;50.298;8.520;2024-01-07T08:12:14;0.80;99.90
2605;DHT22;1312;50.298;8.520;2024-01-07T08:14:42;0.80;99.90
2605;DHT22;1312;50.298;8.520;2024-01-07T08:17:10;0.80;99.90
2605;DHT22;1312;50.298;8.520;2024-01-07T08:19:38;0.80;99.90
2605;DHT22;1312;50.298;8.520;2024-01-07T08:22:06;0.80;99.90
2605;DHT22;1312;50.298;8.520;2024-01-07T08:24:35;0.70;99.90
2605;DHT22;1312;50.298;8.520;2024-01-07T08:27:05;0.70;99.90
2605;DHT22;1312;50.298;8.520;2024-01-07T08:29:33;0.70;99.90
2605;DHT22;1312;50.298;8.520;2024-01-07T08:32:01;0.60;99.90
2605;DHT22;1312;50.298;8.520;2024-01-07T08:34:30;0.60;99.90
2605;DHT22;1312;50.298;8.520;2024-01-07T08:36:58;0.70;99.90
2605;DHT22;1312;50.298;8.520;2024-01-07T08:39:26;0.60;99.90
2605;DHT22;1312;50.298;8.520;2024-01-07T08:41:55;0.70;99.90
2605;DHT22;1312;50.298;8.520;2024-01-07T08:44:25;0.60;99.90
2605;DHT22;1312;50.298;8.520;2024-01-07T08:46:53;0.70;99.90
2605;DHT22;1312;50.298;8.520;2024-01-07T08:49:20;0.60;99.90
2605;DHT22;1312;50.298;8.520;2024-01-07T08:51:49;0.60;99.90
2605;DHT22;1312;50.298;8.520;2024-01-07T08:54:16;0.60;99.90
2605;DHT22;1312;50.298;8.520;2024-01-07T08:56:44;0.60;1.00
2605;DHT22;1312;50.298;8.520;2024-01-07T08:59:12;0.60;1.00
2605;DHT22;1312;50.298;8.520;2024-01-07T09:01:42;0.60;99.90
2605;DHT22;1312;50.298;8.520;2024-01-07T09:04:10;0.60;99.90
2605;DHT22;1312;50.298;8.520;2024-01-07T09:06:38;0.60;1.00
2605;DHT22;1312;50.298;8.520;2024-01-07T09:09:07;0.60;1.00
2605;DHT22;1312;50.298;8.520;2024-01-07T09:11:35;0.50;1.00
2605;DHT22;1312;50.298;8.520;2024-01-07T09:14:03;0.60;1.00
2605;DHT22;1312;50.298;8.520;2024-01-07T09:16:32;0.50;99.90
2605;DHT22;1312;50.298;8.520;2024-01-07T09:19:01;0.50;1.00
2605;DHT22;1312;50.298;8.520;2024-01-07T09:21:29;0.50;99.90
2605;DHT22;1312;50.298;8.520;2024-01-07T09:23:57;0.50;32.40
2605;DHT22;1312;50.298;8.520;2024-01-07T09:26:26;0.50;99.90
2605;DHT22;1312;50.298;8.520;2024-01-07T09:28:55;0.50;99.90
2605;DHT22;1312;50.298;8.520;2024-01-07T09:31:23;0.50;94.10
2605;DHT22;1312;50.298;8.520;2024-01-07T09:33:51;0.50;1.00
2605;DHT22;1312;50.298;8.520;2024-01-07T09:36:20;0.40;99.90
2605;DHT22;1312;50.298;8.520;2024-01-07T09:38:51;0.40;1.00
2605;DHT22;1312;50.298;8.520;2024-01-07T09:41:20;0.40;1.00
2605;DHT22;1312;50.298;8.520;2024-01-07T09:43:48;0.40;64.20
2605;DHT22;1312;50.298;8.520;2024-01-07T09:46:16;0.40;1.00
2605;DHT22;1312;50.298;8.520;2024-01-07T09:48:44;0.40;29.00
2605;DHT22;1312;50.298;8.520;2024-01-07T09:51:13;0.50;99.90
2605;DHT22;1312;50.298;8.520;2024-01-07T09:53:46;0.40;1.00
2605;DHT22;1312;50.298;8.520;2024-01-07T09:56:19;0.40;99.90
2605;DHT22;1312;50.298;8.520;2024-01-07T09:58:47;0.40;13.10
2605;DHT22;1312;50.298;8.520;2024-01-07T10:01:17;0.40;99.90
2605;DHT22;1312;50.298;8.520;2024-01-07T10:03:45;0.50;14.50
2605;DHT22;1312;50.298;8.520;2024-01-07T10:06:18;0.40;1.00
2605;DHT22;1312;50.298;8.520;2024-01-07T10:08:47;0.50;99.90
2605;DHT22;1312;50.298;8.520;2024-01-07T10:11:15;0.50;99.90
2605;DHT22;1312;50.298;8.520;2024-01-07T10:13:45;0.40;1.00
2605;DHT22;1312;50.298;8.520;2024-01-07T10:16:14;0.40;99.90
2605;DHT22;1312;50.298;8.520;2024-01-07T10:18:42;0.40;99.90
2605;DHT22;1312;50.298;8.520;2024-01-07T10:21:10;0.40;99.90
2605;DHT22;1312;50.298;8.520;2024-01-07T10:23:38;0.40;99.90
2605;DHT22;1312;50.298;8.520;2024-01-07T10:26:07;0.40;1.00
2605;DHT22;1312;50.298;8.520;2024-01-07T10:28:49;0.40;99.90
2605;DHT22;1312;50.298;8.520;2024-01-07T10:31:17;0.20;1.00
2605;DHT22;1312;50.298;8.520;2024-01-07T10:33:45;0.20;1.00
2605;DHT22;1312;50.298;8.520;2024-01-07T10:36:13;0.20;1.00
2605;DHT22;1312;50.298;8.520;2024-01-07T10:38:42;0.20;1.00
2605;DHT22;1312;50.298;8.520;2024-01-07T10:41:14;0.40;24.90
2605;DHT22;1312;50.298;8.520;2024-01-07T10:43:46;0.20;99.90
2605;DHT22;1312;50.298;8.520;2024-01-07T10:46:15;0.20;99.90
2605;DHT22;1312;50.298;8.520;2024-01-07T10:48:51;0.20;1.00
2605;DHT22;1312;50.298;8.520;2024-01-07T10:51:21;0.20;1.00
2605;DHT22;1312;50.298;8.520;2024-01-07T10:53:52;0.30;18.90
2605;DHT22;1312;50.298;8.520;2024-01-07T10:56:24;0.10;1.00
2605;DHT22;1312;50.298;8.520;2024-01-07T10:58:52;0.00;99.90
2605;DHT22;1312;50.298;8.520;2024-01-07T11:01:21;0.10;1.00
2605;DHT22;1312;50.298;8.520;2024-01-07T11:03:56;0.10;1.00
2605;DHT22;1312;50.298;8.520;2024-01-07T11:06:31;0.10;1.00
2605;DHT22;1312;50.298;8.520;2024-01-07T11:09:06;0.10;1.00
2605;DHT22;1312;50.298;8.520;2024-01-07T11:11:41;0.10;1.00
2605;DHT22;1312;50.298;8.520;2024-01-07T11:14:34;0.10;1.00
2605;DHT22;1312;50.298;8.520;2024-01-07T11:17:03;0.10;99.90
2605;DHT22;1312;50.298;8.520;2024-01-07T11:19:31;0.10;99.90
2605;DHT22;1312;50.298;8.520;2024-01-07T11:22:21;0.00;99.90
2605;DHT22;1312;50.298;8.520;2024-01-07T11:24:50;0.10;99.90
2605;DHT22;1312;50.298;8.520;2024-01-07T11:27:20;0.10;99.90
2605;DHT22;1312;50.298;8.520;2024-01-07T11:29:55;0.10;99.90
2605;DHT22;1312;50.298;8.520;2024-01-07T11:32:24;0.10;99.90
2605;DHT22;1312;50.298;8.520;2024-01-07T11:34:56;0.10;99.90
2605;DHT22;1312;50.298;8.520;2024-01-07T11:37:26;0.10;1.00
2605;DHT22;1312;50.298;8.520;2024-01-07T11:39:56;0.20;1.00
2605;DHT22;1312;50.298;8.520;2024-01-07T11:42:25;-0.10;1.00
2605;DHT22;1312;50.298;8.520;2024-01-07T11:44:55;0.00;99.90
2605;DHT22;1312;50.298;8.520;2024-01-07T11:47:23;0.00;99.90
2605;DHT22;1312;50.298;8.520;2024-01-07T11:49:52;-0.20;1.00
2605;DHT22;1312;50.298;8.520;2024-01-07T11:52:21;-0.20;99.90
2605;DHT22;1312;50.298;8.520;2024-01-07T11:54:50;-0.10;1.00
2605;DHT22;1312;50.298;8.520;2024-01-07T11:57:18;-0.10;99.90
2605;DHT22;1312;50.298;8.520;2024-01-07T11:59:47;-0.20;1.00
2605;DHT22;1312;50.298;8.520;2024-01-07T12:02:15;-0.20;99.90
2605;DHT22;1312;50.298;8.520;2024-01-07T12:04:44;-0.20;1.00
2605;DHT22;1312;50.298;8.520;2024-01-07T12:12:49;-0.30;99.90
2605;DHT22;1312;50.298;8.520;2024-01-07T12:15:20;-0.40;99.90
2605;DHT22;1312;50.298;8.520;2024-01-07T12:17:55;-0.40;99.90
2605;DHT22;1312;50.298;8.520;2024-01-07T12:20:25;-0.30;37.10
2605;DHT22;1312;50.298;8.520;2024-01-07T12:22:56;-0.30;1.00
2605;DHT22;1312;50.298;8.520;2024-01-07T12:25:24;-0.40;1.00
2605;DHT22;1312;50.298;8.520;2024-01-07T12:27:52;-0.40;99.90
2605;DHT22;1312;50.298;8.520;2024-01-07T12:30:24;-0.40;1.00
2605;DHT22;1312;50.298;8.520;2024-01-07T12:32:53;-0.40;1.00
2605;DHT22;1312;50.298;8.520;2024-01-07T12:35:21;-0.40;1.00
2605;DHT22;1312;50.298;8.520;2024-01-07T12:37:48;-0.50;99.90
2605;DHT22;1312;50.298;8.520;2024-01-07T12:40:16;-0.40;99.90
2605;DHT22;1312;50.298;8.520;2024-01-07T12:42:46;-0.50;99.90
2605;DHT22;1312;50.298;8.520;2024-01-07T12:45:16;-0.60;99.90
2605;DHT22;1312;50.298;8.520;2024-01-07T12:47:45;-0.60;99.90
2605;DHT22;1312;50.298;8.520;2024-01-07T12:50:13;-0.60;99.90
2605;DHT22;1312;50.298;8.520;2024-01-07T12:52:42;-0.60;1.00
2605;DHT22;1312;50.298;8.520;2024-01-07T12:55:10;-0.60;1.00
2605;DHT22;1312;50.298;8.520;2024-01-07T12:57:38;-0.60;99.90
2605;DHT22;1312;50.298;8.520;2024-01-07T13:00:07;-0.60;1.00
2605;DHT22;1312;50.298;8.520;2024-01-07T13:02:36;-0.60;1.00
2605;DHT22;1312;50.298;8.520;2024-01-07T13:05:06;-0.60;1.00
2605;DHT22;1312;50.298;8.520;2024-01-07T13:07:35;-0.70;1.00
2605;DHT22;1312;50.298;8.520;2024-01-07T13:10:03;-0.70;1.00
2605;DHT22;1312;50.298;8.520;2024-01-07T13:12:31;-0.60;1.00
2605;DHT22;1312;50.298;8.520;2024-01-07T13:15:13;-0.80;99.90
2605;DHT22;1312;50.298;8.520;2024-01-07T13:17:44;-0.80;99.90
2605;DHT22;1312;50.298;8.520;2024-01-07T13:20:13;-0.90;99.90
2605;DHT22;1312;50.298;8.520;2024-01-07T13:22:41;-0.90;99.90
2605;DHT22;1312;50.298;8.520;2024-01-07T13:25:10;-0.90;99.90
2605;DHT22;1312;50.298;8.520;2024-01-07T13:27:37;-1.00;99.90
2605;DHT22;1312;50.298;8.520;2024-01-07T13:30:07;-1.00;99.90
2605;DHT22;1312;50.298;8.520;2024-01-07T13:32:35;-1.00;99.90
2605;DHT22;1312;50.298;8.520;2024-01-07T13:35:05;-1.00;99.90
2605;DHT22;1312;50.298;8.520;2024-01-07T13:37:38;-1.00;99.90
2605;DHT22;1312;50.298;8.520;2024-01-07T13:40:09;-1.10;1.00
2605;DHT22;1312;50.298;8.520;2024-01-07T13:42:37;-1.00;67.00
2605;DHT22;1312;50.298;8.520;2024-01-07T13:45:06;-1.00;1.00
2605;DHT22;1312;50.298;8.520;2024-01-07T13:47:34;-1.10;1.00
2605;DHT22;1312;50.298;8.520;2024-01-07T13:50:03;-1.10;1.00
2605;DHT22;1312;50.298;8.520;2024-01-07T13:52:31;-1.20;1.00
2605;DHT22;1312;50.298;8.520;2024-01-07T13:55:00;-1.10;1.00
2605;DHT22;1312;50.298;8.520;2024-01-07T13:57:29;-1.30;1.00
2605;DHT22;1312;50.298;8.520;2024-01-07T13:59:58;-1.30;1.00
2605;DHT22;1312;50.298;8.520;2024-01-07T14:02:26;-1.30;1.00
2605;DHT22;1312;50.298;8.520;2024-01-07T14:04:53;-1.20;1.00
2605;DHT22;1312;50.298;8.520;2024-01-07T14:07:21;-1.20;1.00
2605;DHT22;1312;50.298;8.520;2024-01-07T14:09:51;-1.30;1.00
2605;DHT22;1312;50.298;8.520;2024-01-07T14:12:20;-1.30;1.00
2605;DHT22;1312;50.298;8.520;2024-01-07T14:14:48;-1.30;1.00
2605;DHT22;1312;50.298;8.520;2024-01-07T14:17:16;-1.40;1.00
2605;DHT22;1312;50.298;8.520;2024-01-07T14:19:44;-1.40;1.00
2605;DHT22;1312;50.298;8.520;2024-01-07T14:22:13;-1.40;1.00
2605;DHT22;1312;50.298;8.520;2024-01-07T14:24:42;-1.40;1.00
2605;DHT22;1312;50.298;8.520;2024-01-07T14:27:10;-1.50;1.00
2605;DHT22;1312;50.298;8.520;2024-01-07T14:29:40;-1.50;1.00
2605;DHT22;1312;50.298;8.520;2024-01-07T14:32:08;-1.60;1.00
2605;DHT22;1312;50.298;8.520;2024-01-07T14:34:38;-1.60;1.00
2605;DHT22;1312;50.298;8.520;2024-01-07T14:37:08;-1.60;1.00
2605;DHT22;1312;50.298;8.520;2024-01-07T14:39:37;-1.70;1.00
2605;DHT22;1312;50.298;8.520;2024-01-07T14:42:05;-1.80;1.00
2605;DHT22;1312;50.298;8.520;2024-01-07T14:44:33;-1.70;99.90
2605;DHT22;1312;50.298;8.520;2024-01-07T14:47:15;-1.80;99.90
2605;DHT22;1312;50.298;8.520;2024-01-07T14:49:43;-1.80;99.90
2605;DHT22;1312;50.298;8.520;2024-01-07T14:52:10;-1.80;99.90
2605;DHT22;1312;50.298;8.520;2024-01-07T14:54:39;-1.90;99.90
2605;DHT22;1312;50.298;8.520;2024-01-07T14:57:07;-1.90;99.90
2605;DHT22;1312;50.298;8.520;2024-01-07T14:59:36;-1.90;99.90
2605;DHT22;1312;50.298;8.520;2024-01-07T15:02:04;-2.00;99.90
2605;DHT22;1312;50.298;8.520;2024-01-07T15:04:34;-2.00;99.90
2605;DHT22;1312;50.298;8.520;2024-01-07T15:07:03;-2.10;99.90
2605;DHT22;1312;50.298;8.520;2024-01-07T15:09:31;-2.00;99.90
2605;DHT22;1312;50.298;8.520;2024-01-07T15:11:59;-2.00;99.90
2605;DHT22;1312;50.298;8.520;2024-01-07T15:14:27;-2.10;99.90
2605;DHT22;1312;50.298;8.520;2024-01-07T15:16:55;-2.10;99.90
2605;DHT22;1312;50.298;8.520;2024-01-07T15:19:23;-2.20;99.90
2605;DHT22;1312;50.298;8.520;2024-01-07T15:21:52;-2.20;99.90
2605;DHT22;1312;50.298;8.520;2024-01-07T15:24:20;-2.20;99.90
2605;DHT22;1312;50.298;8.520;2024-01-07T15:26:48;-2.30;99.90
2605;DHT22;1312;50.298;8.520;2024-01-07T15:29:16;-2.20;99.90
2605;DHT22;1312;50.298;8.520;2024-01-07T15:31:46;-2.30;99.90
2605;DHT22;1312;50.298;8.520;2024-01-07T15:34:14;-2.30;99.90
2605;DHT22;1312;50.298;8.520;2024-01-07T15:36:42;-2.30;99.90
2605;DHT22;1312;50.298;8.520;2024-01-07T15:39:12;-2.20;99.90
2605;DHT22;1312;50.298;8.520;2024-01-07T15:41:39;-2.30;99.90
2605;DHT22;1312;50.298;8.520;2024-01-07T15:44:07;-2.40;99.90
2605;DHT22;1312;50.298;8.520;2024-01-07T15:46:35;-2.40;99.90
2605;DHT22;1312;50.298;8.520;2024-01-07T15:49:03;-2.50;99.90
2605;DHT22;1312;50.298;8.520;2024-01-07T15:51:31;-2.50;99.90
2605;DHT22;1312;50.298;8.520;2024-01-07T15:53:59;-2.50;99.90
2605;DHT22;1312;50.298;8.520;2024-01-07T15:56:28;-2.60;99.90
2605;DHT22;1312;50.298;8.520;2024-01-07T15:58:56;-2.60;99.90
2605;DHT22;1312;50.298;8.520;2024-01-07T16:01:25;-2.60;99.90
2605;DHT22;1312;50.298;8.520;2024-01-07T16:03:53;-2.50;99.90
2605;DHT22;1312;50.298;8.520;2024-01-07T16:06:22;-2.50;99.90
2605;DHT22;1312;50.298;8.520;2024-01-07T16:08:50;-2.50;99.90
2605;DHT22;1312;50.298;8.520;2024-01-07T16:11:18;-2.60;99.90
2605;DHT22;1312;50.298;8.520;2024-01-07T16:13:47;-2.60;99.90
2605;DHT22;1312;50.298;8.520;2024-01-07T16:16:16;-2.60;99.90
2605;DHT22;1312;50.298;8.520;2024-01-07T16:18:44;-2.70;99.90
2605;DHT22;1312;50.298;8.520;2024-01-07T16:21:12;-2.70;99.90
2605;DHT22;1312;50.298;8.520;2024-01-07T16:23:39;-2.70;99.90
2605;DHT22;1312;50.298;8.520;2024-01-07T16:26:07;-2.80;99.90
2605;DHT22;1312;50.298;8.520;2024-01-07T16:28:35;-2.80;99.90
2605;DHT22;1312;50.298;8.520;2024-01-07T16:31:04;-2.90;99.90
2605;DHT22;1312;50.298;8.520;2024-01-07T16:33:33;-2.80;99.90
2605;DHT22;1312;50.298;8.520;2024-01-07T16:36:04;-2.80;99.90